createdAt,value
2017-07-29T00:00:02.541Z,0
2017-07-29T00:05:02.509Z,0
2017-07-29T00:10:02.982Z,0
2017-07-29T00:15:02.415Z,0
2017-07-29T00:20:02.978Z,0
2017-07-29T00:25:03.245Z,0
2017-07-29T00:30:02.596Z,0
2017-07-29T00:35:02.947Z,0
2017-07-29T00:40:02.452Z,0
2017-07-29T00:45:02.904Z,0
2017-07-29T00:50:02.396Z,0
2017-07-29T00:55:02.851Z,0
2017-07-29T01:00:03.356Z,0
2017-07-29T01:05:02.652Z,0
2017-07-29T01:10:03.066Z,0
2017-07-29T01:15:02.563Z,0
2017-07-29T01:20:02.949Z,0
2017-07-29T01:25:02.419Z,0
2017-07-29T01:30:02.833Z,0
2017-07-29T01:35:03.186Z,0
2017-07-29T01:40:02.659Z,0
2017-07-29T01:45:03.141Z,0
2017-07-29T01:50:02.573Z,0
2017-07-29T01:55:02.950Z,0
2017-07-29T02:00:03.327Z,0
2017-07-29T02:05:02.623Z,0
2017-07-29T02:10:02.978Z,0
2017-07-29T02:15:02.492Z,0
2017-07-29T02:20:02.866Z,0
2017-07-29T02:25:03.244Z,0
2017-07-29T02:30:02.708Z,0
2017-07-29T02:35:03.216Z,0
2017-07-29T02:40:02.596Z,0
2017-07-29T02:45:02.922Z,0
2017-07-29T02:50:02.395Z,0
2017-07-29T02:55:02.850Z,0
2017-07-29T03:00:03.166Z,0
2017-07-29T03:05:02.612Z,0
2017-07-29T03:10:03.152Z,0
2017-07-29T03:15:02.580Z,0
2017-07-29T03:20:02.946Z,0
2017-07-29T03:25:02.422Z,2
2017-07-29T03:30:02.890Z,4
2017-07-29T03:35:03.386Z,10
2017-07-29T03:40:02.720Z,19
2017-07-29T03:45:03.116Z,25
2017-07-29T03:50:02.459Z,35
2017-07-29T03:55:02.789Z,49
2017-07-29T04:00:03.298Z,56
2017-07-29T04:05:02.717Z,85
2017-07-29T04:10:03.222Z,118
2017-07-29T04:15:02.554Z,128
2017-07-29T04:20:02.931Z,179
2017-07-29T04:25:03.247Z,306
2017-07-29T04:30:02.487Z,373
2017-07-29T04:35:02.823Z,734
2017-07-29T04:40:03.320Z,758
2017-07-29T04:45:02.609Z,686
2017-07-29T04:50:03.089Z,876
2017-07-29T04:55:02.392Z,899
2017-07-29T05:00:02.693Z,1000
2017-07-29T05:05:02.767Z,1000
2017-07-29T05:10:02.502Z,1000
2017-07-29T05:15:02.763Z,1000
2017-07-29T05:20:03.103Z,2000
2017-07-29T05:25:02.418Z,2000
2017-07-29T05:30:02.713Z,2000
2017-07-29T05:35:03.024Z,2000
2017-07-29T05:40:02.514Z,2000
2017-07-29T05:45:02.845Z,1000
2017-07-29T05:50:03.173Z,3000
2017-07-29T05:55:02.429Z,3000
2017-07-29T06:00:02.736Z,4000
2017-07-29T06:05:03.214Z,4000
2017-07-29T06:10:02.855Z,4000
2017-07-29T06:15:02.408Z,4000
2017-07-29T06:20:02.737Z,2000
2017-07-29T06:25:03.292Z,2000
2017-07-29T06:30:02.756Z,2000
2017-07-29T06:35:03.203Z,2000
2017-07-29T06:40:02.646Z,2000
2017-07-29T06:45:03.059Z,2000
2017-07-29T06:50:02.374Z,2000
2017-07-29T06:55:02.697Z,3000
2017-07-29T07:00:02.960Z,4000
2017-07-29T07:05:02.376Z,4000
2017-07-29T07:10:02.735Z,4000
2017-07-29T07:15:03.006Z,3000
2017-07-29T07:20:02.483Z,4000
2017-07-29T07:25:02.944Z,4000
2017-07-29T07:30:03.504Z,6000
2017-07-29T07:35:02.897Z,7000
2017-07-29T07:40:03.277Z,6000
2017-07-29T07:45:02.653Z,4000
2017-07-29T07:50:03.210Z,3000
2017-07-29T07:55:02.542Z,7000
2017-07-29T08:00:03.007Z,8000
2017-07-29T08:05:02.359Z,5000
2017-07-29T08:10:02.718Z,5000
2017-07-29T08:15:03.189Z,5000
2017-07-29T08:20:02.500Z,5000
2017-07-29T08:25:02.847Z,6000
2017-07-29T08:30:03.136Z,5000
2017-07-29T08:35:02.415Z,6000
2017-07-29T08:40:02.731Z,6000
2017-07-29T08:45:03.043Z,5000
2017-07-29T08:50:02.597Z,7000
2017-07-29T08:55:02.894Z,9000
2017-07-29T09:00:03.206Z,12000
2017-07-29T09:05:02.697Z,15000
2017-07-29T09:10:03.199Z,18000
2017-07-29T09:15:02.500Z,18000
2017-07-29T09:20:02.973Z,16000
2017-07-29T09:25:02.400Z,14000
2017-07-29T09:30:02.854Z,8000
2017-07-29T09:35:03.168Z,7000
2017-07-29T09:40:02.678Z,6000
2017-07-29T09:45:03.152Z,8000
2017-07-29T09:50:02.445Z,12000
2017-07-29T09:55:02.784Z,6000
2017-07-29T10:00:03.300Z,5000
2017-07-29T10:05:02.721Z,5000
2017-07-29T10:10:03.210Z,4000
2017-07-29T10:15:02.488Z,4000
2017-07-29T10:20:03.027Z,12000
2017-07-29T10:25:03.306Z,10000
2017-07-29T10:30:02.614Z,10000
2017-07-29T10:35:02.876Z,9000
2017-07-29T10:40:02.456Z,6000
2017-07-29T10:45:02.785Z,6000
2017-07-29T10:50:03.136Z,9000
2017-07-29T10:55:02.578Z,12000
2017-07-29T11:00:02.921Z,11000
2017-07-29T11:05:02.355Z,19000
2017-07-29T11:10:02.656Z,9000
2017-07-29T11:15:03.147Z,7000
2017-07-29T11:20:02.635Z,12000
2017-07-29T11:25:03.028Z,11000
2017-07-29T11:30:02.461Z,5000
2017-07-29T11:35:02.992Z,3000
2017-07-29T11:40:02.376Z,3000
2017-07-29T11:45:02.700Z,4000
2017-07-29T11:50:03.040Z,3000
2017-07-29T11:55:02.506Z,6000
2017-07-29T12:00:02.848Z,4000
2017-07-29T12:05:03.316Z,7000
2017-07-29T12:10:02.672Z,5000
2017-07-29T12:15:02.999Z,4000
2017-07-29T12:20:02.381Z,5000
2017-07-29T12:25:02.763Z,8000
2017-07-29T12:30:03.162Z,8000
2017-07-29T12:35:02.549Z,11000
2017-07-29T12:40:02.965Z,23000
2017-07-29T12:45:03.252Z,51000
2017-07-29T12:50:02.598Z,16000
2017-07-29T12:55:02.902Z,54000
2017-07-29T13:00:03.249Z,15000
2017-07-29T13:05:02.712Z,10000
2017-07-29T13:10:03.148Z,11000
2017-07-29T13:15:02.431Z,12000
2017-07-29T13:20:02.906Z,19000
2017-07-29T13:25:03.196Z,13000
2017-07-29T13:30:02.488Z,13000
2017-07-29T13:35:03.058Z,8000
2017-07-29T13:40:02.546Z,9000
2017-07-29T13:45:02.907Z,9000
2017-07-29T13:50:03.265Z,9000
2017-07-29T13:55:02.787Z,9000
2017-07-29T14:00:03.251Z,9000
2017-07-29T14:05:02.670Z,8000
2017-07-29T14:10:03.233Z,6000
2017-07-29T14:15:02.703Z,10000
2017-07-29T14:20:03.078Z,8000
2017-07-29T14:25:02.455Z,8000
2017-07-29T14:30:02.947Z,8000
2017-07-29T14:35:03.283Z,9000
2017-07-29T14:40:02.779Z,9000
2017-07-29T14:45:03.209Z,7000
2017-07-29T14:50:02.566Z,5000
2017-07-29T14:55:02.829Z,5000
2017-07-29T15:00:03.282Z,8000
2017-07-29T15:05:02.654Z,6000
2017-07-29T15:10:03.142Z,7000
2017-07-29T15:15:02.485Z,6000
2017-07-29T15:20:02.950Z,3000
2017-07-29T15:25:02.394Z,3000
2017-07-29T15:30:02.756Z,3000
2017-07-29T15:35:03.048Z,3000
2017-07-29T15:40:02.518Z,2000
2017-07-29T15:45:02.888Z,3000
2017-07-29T15:50:03.181Z,2000
2017-07-29T15:55:02.596Z,1000
2017-07-29T16:00:02.997Z,1000
2017-07-29T16:05:02.298Z,3000
2017-07-29T16:10:02.706Z,2000
2017-07-29T16:15:03.269Z,3000
2017-07-29T16:20:02.703Z,4000
2017-07-29T16:25:03.179Z,6000
2017-07-29T16:30:02.480Z,7000
2017-07-29T16:35:02.897Z,9000
2017-07-29T16:40:03.309Z,6000
2017-07-29T16:45:02.635Z,4000
2017-07-29T16:50:03.083Z,3000
2017-07-29T16:55:02.397Z,4000
2017-07-29T17:00:02.892Z,3000
2017-07-29T17:05:03.247Z,2000
2017-07-29T17:10:02.731Z,3000
2017-07-29T17:15:03.074Z,3000
2017-07-29T17:20:02.560Z,2000
2017-07-29T17:25:02.876Z,2000
2017-07-29T17:30:02.387Z,1000
2017-07-29T17:35:02.937Z,1000
2017-07-29T17:40:03.330Z,1000
2017-07-29T17:45:02.757Z,1000
2017-07-29T17:50:03.218Z,1000
2017-07-29T17:55:02.693Z,934
2017-07-29T18:00:03.119Z,1000
2017-07-29T18:05:02.446Z,2000
2017-07-29T18:10:02.860Z,1000
2017-07-29T18:15:03.266Z,1000
2017-07-29T18:20:02.594Z,869
2017-07-29T18:25:03.018Z,3000
2017-07-29T18:30:03.275Z,1000
2017-07-29T18:35:02.736Z,848
2017-07-29T18:40:03.091Z,827
2017-07-29T18:45:02.548Z,714
2017-07-29T18:50:02.981Z,581
2017-07-29T18:55:02.484Z,397
2017-07-29T19:00:02.791Z,365
2017-07-29T19:05:03.237Z,255
2017-07-29T19:10:02.626Z,125
2017-07-29T19:15:02.920Z,71
2017-07-29T19:20:02.576Z,59
2017-07-29T19:25:02.850Z,47
2017-07-29T19:30:03.289Z,44
2017-07-29T19:35:02.587Z,32
2017-07-29T19:40:02.949Z,30
2017-07-29T19:45:02.520Z,21
2017-07-29T19:50:03.020Z,12
2017-07-29T19:55:02.487Z,5
2017-07-29T20:00:02.929Z,1
2017-07-29T20:05:02.369Z,0
2017-07-29T20:10:02.915Z,0
2017-07-29T20:15:02.358Z,0
2017-07-29T20:20:02.851Z,0
2017-07-29T20:25:03.179Z,0
2017-07-29T20:30:02.649Z,0
2017-07-29T20:35:03.306Z,0
2017-07-29T20:40:02.671Z,0
2017-07-29T20:45:02.958Z,0
2017-07-29T20:50:02.409Z,0
2017-07-29T20:55:02.701Z,0
2017-07-29T21:00:03.265Z,0
2017-07-29T21:05:02.687Z,0
2017-07-29T21:10:03.040Z,0
2017-07-29T21:15:02.360Z,0
2017-07-29T21:20:02.891Z,0
2017-07-29T21:25:02.365Z,0
2017-07-29T21:30:02.840Z,0
2017-07-29T21:35:03.289Z,0
2017-07-29T21:40:02.600Z,0
2017-07-29T21:45:02.940Z,0
2017-07-29T21:50:02.394Z,0
2017-07-29T21:55:02.861Z,0
2017-07-29T22:00:03.117Z,0
2017-07-29T22:05:02.466Z,0
2017-07-29T22:10:02.945Z,0
2017-07-29T22:15:02.397Z,0
2017-07-29T22:20:02.888Z,0
2017-07-29T22:25:03.188Z,0
2017-07-29T22:30:02.444Z,0
2017-07-29T22:35:02.953Z,0
2017-07-29T22:40:02.563Z,0
2017-07-29T22:45:02.849Z,0
2017-07-29T22:50:02.317Z,0
2017-07-29T22:55:02.681Z,0
2017-07-29T23:00:03.372Z,0
2017-07-29T23:05:02.685Z,0
2017-07-29T23:10:03.046Z,0
2017-07-29T23:15:02.320Z,0
2017-07-29T23:20:02.677Z,0
2017-07-29T23:25:03.094Z,0
2017-07-29T23:30:02.547Z,0
2017-07-29T23:35:02.997Z,0
2017-07-29T23:40:02.328Z,0
2017-07-29T23:45:02.644Z,0
2017-07-29T23:50:02.962Z,0
2017-07-29T23:55:03.277Z,0
